createdAt,value
2023-01-29T00:01:44.244Z,97.38
2023-01-29T00:04:30.143Z,98.57
2023-01-29T00:07:06.459Z,102.25
2023-01-29T00:09:44.574Z,94.60
2023-01-29T00:12:42.761Z,86.50
2023-01-29T00:15:27.714Z,89.68
2023-01-29T00:18:00.131Z,93.68
2023-01-29T00:20:38.505Z,92.70
2023-01-29T00:23:32.867Z,85.82
2023-01-29T00:26:15.635Z,98.38
2023-01-29T00:29:00.044Z,109.43
2023-01-29T00:31:46.014Z,90.82
2023-01-29T00:34:29.631Z,136.63
2023-01-29T00:37:22.157Z,108.70
2023-01-29T00:43:10.076Z,93.70
2023-01-29T00:45:44.295Z,89.90
2023-01-29T00:48:31.470Z,102.22
2023-01-29T00:51:13.955Z,97.00
2023-01-29T00:53:54.648Z,91.40
2023-01-29T00:56:32.411Z,101.72
2023-01-29T00:59:03.844Z,114.13
2023-01-29T01:01:46.519Z,113.60
2023-01-29T01:04:18.313Z,132.50
2023-01-29T01:06:48.426Z,102.72
2023-01-29T01:09:34.486Z,107.95
2023-01-29T01:12:14.397Z,102.63
2023-01-29T01:15:10.886Z,97.15
2023-01-29T01:18:04.752Z,98.20
2023-01-29T01:20:58.831Z,92.00
2023-01-29T01:23:51.651Z,88.97
2023-01-29T01:26:43.309Z,89.20
2023-01-29T01:29:26.253Z,107.57
2023-01-29T01:32:03.785Z,99.88
2023-01-29T01:34:50.947Z,92.00
2023-01-29T01:37:47.749Z,94.28
2023-01-29T01:40:53.536Z,93.97
2023-01-29T01:43:42.598Z,97.38
2023-01-29T01:46:20.385Z,97.80
2023-01-29T01:48:58.458Z,88.75
2023-01-29T01:51:41.396Z,96.80
2023-01-29T01:54:21.777Z,90.22
2023-01-29T01:57:06.313Z,94.45
2023-01-29T01:59:45.381Z,105.25
2023-01-29T02:02:31.696Z,86.53
2023-01-29T02:05:16.461Z,81.53
2023-01-29T02:08:06.782Z,85.68
2023-01-29T02:10:45.368Z,81.63
2023-01-29T02:13:18.818Z,82.47
2023-01-29T02:15:49.961Z,81.55
2023-01-29T02:18:27.372Z,88.03
2023-01-29T02:21:25.686Z,85.35
2023-01-29T02:24:42.556Z,89.78
2023-01-29T02:27:32.332Z,88.78
2023-01-29T02:30:20.792Z,90.40
2023-01-29T02:33:07.665Z,84.65
2023-01-29T02:36:04.625Z,89.00
2023-01-29T02:39:16.362Z,83.60
2023-01-29T02:42:06.107Z,74.97
2023-01-29T02:44:41.654Z,91.82
2023-01-29T02:47:26.638Z,90.10
2023-01-29T02:50:20.780Z,79.45
2023-01-29T02:53:20.154Z,85.95
2023-01-29T02:56:16.621Z,87.80
2023-01-29T02:59:12.089Z,85.95
2023-01-29T03:01:58.283Z,77.82
2023-01-29T03:04:56.170Z,80.25
2023-01-29T03:07:53.255Z,76.78
2023-01-29T03:10:44.457Z,70.97
2023-01-29T03:13:51.027Z,67.97
2023-01-29T03:16:39.399Z,63.13
2023-01-29T03:19:27.466Z,62.13
2023-01-29T03:22:24.404Z,71.90
2023-01-29T03:25:31.992Z,58.00
2023-01-29T03:28:46.876Z,53.58
2023-01-29T03:31:44.073Z,56.80
2023-01-29T03:41:00.527Z,53.75
2023-01-29T03:44:20.530Z,51.17
2023-01-29T03:50:08.126Z,53.67
2023-01-29T03:53:08.992Z,52.40
2023-01-29T03:56:04.319Z,62.83
2023-01-29T03:59:18.220Z,48.28
2023-01-29T04:02:35.068Z,44.15
2023-01-29T04:05:30.279Z,47.58
2023-01-29T04:08:41.612Z,44.60
2023-01-29T04:11:34.076Z,51.53
2023-01-29T04:14:27.645Z,51.97
2023-01-29T04:17:21.085Z,52.47
2023-01-29T04:20:38.428Z,49.40
2023-01-29T04:23:34.743Z,45.50
2023-01-29T04:26:32.041Z,48.95
2023-01-29T04:29:42.587Z,47.00
2023-01-29T04:32:51.909Z,45.72
2023-01-29T04:39:30.637Z,50.92
2023-01-29T04:42:39.132Z,53.55
2023-01-29T04:45:28.755Z,48.92
2023-01-29T04:48:25.594Z,66.47
2023-01-29T04:51:26.129Z,58.42
2023-01-29T04:54:21.761Z,72.75
2023-01-29T05:00:33.968Z,57.47
2023-01-29T05:03:29.011Z,58.30
2023-01-29T05:06:35.372Z,53.05
2023-01-29T05:09:59.818Z,50.80
2023-01-29T05:12:53.882Z,79.55
2023-01-29T05:16:00.238Z,103.30
2023-01-29T05:19:03.419Z,66.00
2023-01-29T05:21:55.111Z,60.35
2023-01-29T05:28:08.207Z,69.47
2023-01-29T05:31:11.696Z,60.40
2023-01-29T05:36:57.874Z,56.90
2023-01-29T05:39:44.768Z,65.18
2023-01-29T05:42:16.816Z,55.70
2023-01-29T05:44:47.146Z,54.97
2023-01-29T05:47:17.481Z,72.03
2023-01-29T05:49:47.614Z,59.53
2023-01-29T05:52:17.775Z,59.00
2023-01-29T05:54:51.894Z,52.53
2023-01-29T05:57:22.312Z,71.57
2023-01-29T05:59:52.419Z,71.90
2023-01-29T06:02:22.579Z,65.70
2023-01-29T06:04:54.447Z,81.18
2023-01-29T06:07:24.660Z,76.15
2023-01-29T06:09:57.454Z,64.07
2023-01-29T06:12:27.609Z,55.45
2023-01-29T06:14:57.759Z,63.30
2023-01-29T06:17:27.941Z,58.85
2023-01-29T06:20:06.745Z,83.65
2023-01-29T06:22:37.238Z,113.93
2023-01-29T06:25:12.320Z,136.02
2023-01-29T06:27:42.919Z,68.40
2023-01-29T06:30:14.741Z,72.93
2023-01-29T06:32:45.142Z,73.10
2023-01-29T06:35:21.133Z,95.50
2023-01-29T06:37:51.264Z,85.78
2023-01-29T06:40:24.127Z,100.53
2023-01-29T06:42:55.593Z,59.60
2023-01-29T06:45:33.168Z,62.92
2023-01-29T06:48:04.795Z,66.07
2023-01-29T06:50:34.925Z,59.53
2023-01-29T06:53:05.056Z,48.88
2023-01-29T06:55:40.598Z,48.60
2023-01-29T06:58:16.383Z,45.50
2023-01-29T07:00:48.487Z,44.83
2023-01-29T07:03:19.555Z,36.90
2023-01-29T07:05:59.824Z,52.90
2023-01-29T07:08:30.221Z,47.45
2023-01-29T07:11:05.876Z,49.65
2023-01-29T07:13:36.214Z,36.67
2023-01-29T07:16:12.713Z,45.15
2023-01-29T07:18:42.862Z,54.85
2023-01-29T07:21:13.526Z,41.67
2023-01-29T07:23:45.219Z,38.50
2023-01-29T07:26:18.201Z,36.72
2023-01-29T07:28:48.333Z,50.95
2023-01-29T07:31:18.875Z,39.33
2023-01-29T07:33:54.767Z,37.08
2023-01-29T07:36:35.926Z,78.68
2023-01-29T07:39:24.012Z,71.53
2023-01-29T07:42:04.145Z,49.83
2023-01-29T07:44:35.084Z,88.20
2023-01-29T07:47:09.671Z,37.45
2023-01-29T07:49:47.290Z,44.05
2023-01-29T07:52:22.548Z,35.42
2023-01-29T07:54:53.751Z,56.08
2023-01-29T07:57:28.097Z,37.58
2023-01-29T07:59:59.225Z,30.65
2023-01-29T08:02:32.565Z,29.15
2023-01-29T08:05:05.232Z,99.00
2023-01-29T08:07:35.449Z,35.50
2023-01-29T08:10:08.278Z,48.22
2023-01-29T08:12:41.155Z,31.45
2023-01-29T08:15:15.106Z,34.80
2023-01-29T08:17:57.497Z,27.90
2023-01-29T08:20:32.205Z,37.88
2023-01-29T08:23:04.678Z,29.63
2023-01-29T08:25:48.744Z,25.50
2023-01-29T08:30:58.708Z,21.90
2023-01-29T08:33:38.628Z,24.90
2023-01-29T08:36:13.373Z,21.05
2023-01-29T08:38:43.545Z,27.02
2023-01-29T08:41:13.858Z,34.28
2023-01-29T08:43:49.675Z,33.40
2023-01-29T08:46:19.922Z,55.80
2023-01-29T08:48:50.094Z,154.95
2023-01-29T08:51:22.225Z,285.13
2023-01-29T08:53:52.402Z,53.47
2023-01-29T08:56:22.457Z,30.17
2023-01-29T08:58:55.351Z,60.83
2023-01-29T09:01:25.611Z,51.38
2023-01-29T09:03:55.990Z,46.65
2023-01-29T09:06:37.229Z,46.67
2023-01-29T09:09:13.665Z,34.28
2023-01-29T09:11:46.919Z,77.80
2023-01-29T09:14:21.617Z,104.72
2023-01-29T09:16:57.962Z,118.95
2023-01-29T09:19:28.149Z,164.73
2023-01-29T09:21:58.302Z,133.90
2023-01-29T09:24:28.522Z,128.00
2023-01-29T09:26:58.826Z,135.55
2023-01-29T09:29:32.656Z,148.30
2023-01-29T09:32:05.494Z,38.50
2023-01-29T09:34:46.004Z,93.00
2023-01-29T09:37:17.795Z,77.65
2023-01-29T09:39:49.835Z,97.43
2023-01-29T09:42:28.393Z,98.25
2023-01-29T09:45:08.870Z,51.80
2023-01-29T09:47:40.145Z,62.17
2023-01-29T09:50:19.988Z,59.45
2023-01-29T09:53:04.781Z,140.60
2023-01-29T09:55:45.286Z,113.60
2023-01-29T09:58:29.899Z,109.00
2023-01-29T10:15:50.703Z,54.92
2023-01-29T10:18:47.947Z,117.90
2023-01-29T10:21:31.715Z,44.70
2023-01-29T10:24:10.194Z,110.78
2023-01-29T10:26:43.829Z,29.42
2023-01-29T10:29:22.242Z,65.28
2023-01-29T10:31:58.050Z,29.42
2023-01-29T10:34:34.918Z,30.23
2023-01-29T10:37:16.365Z,33.28
2023-01-29T10:39:48.478Z,30.05
2023-01-29T10:42:31.770Z,42.10
2023-01-29T10:45:24.430Z,24.43
2023-01-29T10:48:20.576Z,35.95
2023-01-29T10:50:55.770Z,30.90
2023-01-29T10:53:35.224Z,24.63
2023-01-29T10:56:23.211Z,30.50
2023-01-29T10:59:02.338Z,35.45
2023-01-29T11:01:34.908Z,31.08
2023-01-29T11:04:09.773Z,28.57
2023-01-29T11:06:40.975Z,50.47
2023-01-29T11:09:25.023Z,57.20
2023-01-29T11:12:00.964Z,43.35
2023-01-29T11:14:42.677Z,37.03
2023-01-29T11:17:20.071Z,52.50
2023-01-29T11:19:55.784Z,87.38
2023-01-29T11:22:32.285Z,59.92
2023-01-29T11:25:21.382Z,39.05
2023-01-29T11:27:55.324Z,69.53
2023-01-29T11:30:32.397Z,116.82
2023-01-29T11:33:11.103Z,47.22
2023-01-29T11:35:43.455Z,45.28
2023-01-29T11:38:25.971Z,73.25
2023-01-29T11:40:57.215Z,60.15
2023-01-29T11:43:37.956Z,43.63
2023-01-29T11:46:18.405Z,38.20
2023-01-29T11:48:59.399Z,60.88
2023-01-29T11:51:43.972Z,27.35
2023-01-29T11:54:20.340Z,21.17
2023-01-29T11:56:51.941Z,28.30
2023-01-29T11:59:38.336Z,24.15
2023-01-29T12:02:26.807Z,34.33
2023-01-29T12:05:00.145Z,18.02
2023-01-29T12:07:32.770Z,19.38
2023-01-29T12:10:03.906Z,36.17
2023-01-29T12:12:39.429Z,13.82
2023-01-29T12:15:25.382Z,21.85
2023-01-29T12:18:04.223Z,20.10
2023-01-29T12:20:42.527Z,13.18
2023-01-29T12:23:31.031Z,19.17
2023-01-29T12:26:07.553Z,15.13
2023-01-29T12:28:51.958Z,19.13
2023-01-29T12:31:39.663Z,19.58
2023-01-29T12:34:20.208Z,14.38
2023-01-29T12:36:58.223Z,18.70
2023-01-29T12:39:29.087Z,16.65
2023-01-29T12:42:04.659Z,16.48
2023-01-29T12:44:45.437Z,19.27
2023-01-29T12:47:22.586Z,14.98
2023-01-29T12:50:00.144Z,15.88
2023-01-29T12:52:40.950Z,14.68
2023-01-29T12:55:15.624Z,17.00
2023-01-29T12:57:50.202Z,15.23
2023-01-29T13:00:27.649Z,15.35
2023-01-29T13:03:03.562Z,16.67
2023-01-29T13:05:44.449Z,16.40
2023-01-29T13:08:21.874Z,19.13
2023-01-29T13:10:56.809Z,13.30
2023-01-29T13:13:33.794Z,14.07
2023-01-29T13:16:06.824Z,14.15
2023-01-29T13:18:44.438Z,13.45
2023-01-29T13:21:23.000Z,14.40
2023-01-29T13:23:58.971Z,18.38
2023-01-29T13:26:32.946Z,11.68
2023-01-29T13:29:05.736Z,12.35
2023-01-29T13:31:46.409Z,15.45
2023-01-29T13:34:20.016Z,14.90
2023-01-29T13:36:56.122Z,19.98
2023-01-29T13:39:33.060Z,37.03
2023-01-29T13:42:05.777Z,22.65
2023-01-29T13:44:41.546Z,18.70
2023-01-29T13:47:14.485Z,24.92
2023-01-29T13:49:48.604Z,28.53
2023-01-29T13:52:29.075Z,21.20
2023-01-29T13:55:02.079Z,24.90
2023-01-29T13:57:55.381Z,18.15
2023-01-29T14:00:59.440Z,35.58
2023-01-29T14:04:06.787Z,16.60
2023-01-29T14:06:51.833Z,20.63
2023-01-29T14:09:57.899Z,18.98
2023-01-29T14:12:52.640Z,15.52
2023-01-29T14:15:31.180Z,22.60
2023-01-29T14:18:06.201Z,19.67
2023-01-29T14:20:48.557Z,22.02
2023-01-29T14:23:27.182Z,19.77
2023-01-29T14:25:57.813Z,18.92
2023-01-29T14:28:33.770Z,21.13
2023-01-29T14:31:04.495Z,15.50
2023-01-29T14:33:42.482Z,15.73
2023-01-29T14:36:16.483Z,20.42
2023-01-29T14:38:53.456Z,20.53
2023-01-29T14:41:29.158Z,19.17
2023-01-29T14:44:32.026Z,22.95
2023-01-29T14:47:05.001Z,17.45
2023-01-29T14:49:54.324Z,23.97
2023-01-29T14:52:29.481Z,19.92
2023-01-29T14:55:03.579Z,20.05
2023-01-29T14:57:34.747Z,21.52
2023-01-29T15:00:11.974Z,31.52
2023-01-29T15:02:47.585Z,74.68
2023-01-29T15:05:22.686Z,54.85
2023-01-29T15:07:58.639Z,44.92
2023-01-29T15:10:39.028Z,101.20
2023-01-29T15:13:21.436Z,105.70
2023-01-29T15:15:57.527Z,56.53
2023-01-29T15:18:39.953Z,40.35
2023-01-29T15:21:15.628Z,38.35
2023-01-29T15:23:47.977Z,56.60
2023-01-29T15:26:24.774Z,43.75
2023-01-29T15:29:04.238Z,53.63
2023-01-29T15:31:35.896Z,59.05
2023-01-29T15:34:10.642Z,54.25
2023-01-29T15:36:41.051Z,81.68
2023-01-29T15:39:19.462Z,51.53
2023-01-29T15:41:50.963Z,48.60
2023-01-29T15:44:23.420Z,69.82
2023-01-29T15:46:56.692Z,65.70
2023-01-29T15:49:37.058Z,113.97
2023-01-29T15:52:10.912Z,32.78
2023-01-29T15:57:22.872Z,43.25
2023-01-29T15:59:55.358Z,60.83
2023-01-29T16:02:39.365Z,37.60
2023-01-29T16:07:46.391Z,45.85
2023-01-29T16:10:22.436Z,38.08
2023-01-29T16:12:54.248Z,30.55
2023-01-29T16:15:34.376Z,21.95
2023-01-29T16:18:07.469Z,23.08
2023-01-29T16:20:46.679Z,26.58
2023-01-29T16:23:21.771Z,29.38
2023-01-29T16:25:52.957Z,29.73
2023-01-29T16:28:23.336Z,28.90
2023-01-29T16:31:02.882Z,25.98
2023-01-29T16:33:38.511Z,27.40
2023-01-29T16:36:19.968Z,25.48
2023-01-29T16:38:54.364Z,27.70
2023-01-29T16:41:34.005Z,31.90
2023-01-29T16:44:06.867Z,80.25
2023-01-29T16:46:39.406Z,178.45
2023-01-29T16:49:44.409Z,43.53
2023-01-29T16:52:27.377Z,33.90
2023-01-29T16:55:03.600Z,39.75
2023-01-29T16:57:37.067Z,68.90
2023-01-29T17:00:11.453Z,35.65
2023-01-29T17:02:42.996Z,49.85
2023-01-29T17:05:25.426Z,38.58
2023-01-29T17:08:00.373Z,30.17
2023-01-29T17:10:32.723Z,36.03
2023-01-29T17:13:07.010Z,33.30
2023-01-29T17:15:46.296Z,46.17
2023-01-29T17:18:21.605Z,32.90
2023-01-29T17:20:53.152Z,32.78
2023-01-29T17:23:26.169Z,49.50
2023-01-29T17:25:56.822Z,48.05
2023-01-29T17:28:27.033Z,40.95
2023-01-29T17:31:06.166Z,92.10
2023-01-29T17:33:38.546Z,47.65
2023-01-29T17:36:12.808Z,34.35
2023-01-29T17:38:45.873Z,38.97
2023-01-29T17:41:22.758Z,45.38
2023-01-29T17:43:52.866Z,35.65
2023-01-29T17:46:24.516Z,37.92
2023-01-29T17:48:54.952Z,41.78
2023-01-29T17:51:25.165Z,36.60
2023-01-29T17:53:57.911Z,42.50
2023-01-29T17:56:30.671Z,35.75
2023-01-29T17:59:01.081Z,35.05
2023-01-29T18:01:31.313Z,49.00
2023-01-29T18:04:01.584Z,31.83
2023-01-29T18:06:32.824Z,42.75
2023-01-29T18:09:06.478Z,37.03
2023-01-29T18:11:37.346Z,36.65
2023-01-29T18:14:13.910Z,54.05
2023-01-29T18:16:46.749Z,45.67
2023-01-29T18:19:20.149Z,48.45
2023-01-29T18:21:50.331Z,56.35
2023-01-29T18:24:23.728Z,32.15
2023-01-29T18:29:29.574Z,43.03
2023-01-29T18:31:59.789Z,40.65
2023-01-29T18:34:29.950Z,61.60
2023-01-29T18:37:00.442Z,59.58
2023-01-29T18:39:33.175Z,37.90
2023-01-29T18:42:03.255Z,62.13
2023-01-29T18:44:33.428Z,70.65
2023-01-29T18:47:05.513Z,54.25
2023-01-29T18:49:38.885Z,56.35
2023-01-29T18:52:09.457Z,50.67
2023-01-29T18:54:42.700Z,36.35
2023-01-29T18:57:16.659Z,36.08
2023-01-29T19:00:04.692Z,43.88
2023-01-29T19:02:34.843Z,31.15
2023-01-29T19:05:06.980Z,29.60
2023-01-29T19:07:37.142Z,27.65
2023-01-29T19:10:14.186Z,32.25
2023-01-29T19:12:44.299Z,29.25
2023-01-29T19:15:21.618Z,31.23
2023-01-29T19:17:52.091Z,37.20
2023-01-29T19:20:22.774Z,35.72
2023-01-29T19:22:54.004Z,29.38
2023-01-29T19:25:26.951Z,46.88
2023-01-29T19:27:59.728Z,38.70
2023-01-29T19:30:35.959Z,29.75
2023-01-29T19:33:10.771Z,35.33
2023-01-29T19:35:54.372Z,31.80
2023-01-29T19:38:26.140Z,30.35
2023-01-29T19:41:02.660Z,29.52
2023-01-29T19:43:33.513Z,33.75
2023-01-29T19:46:04.773Z,27.73
2023-01-29T19:48:34.888Z,30.20
2023-01-29T19:51:08.543Z,29.33
2023-01-29T19:53:39.388Z,29.15
2023-01-29T19:56:17.296Z,26.95
2023-01-29T19:58:49.800Z,29.17
2023-01-29T20:03:59.913Z,30.65
2023-01-29T20:06:31.932Z,32.38
2023-01-29T20:09:06.193Z,33.40
2023-01-29T20:11:39.189Z,39.95
2023-01-29T20:14:11.119Z,43.63
2023-01-29T20:16:41.413Z,44.15
2023-01-29T20:19:14.050Z,57.50
2023-01-29T20:21:45.673Z,57.88
2023-01-29T20:24:16.589Z,56.80
2023-01-29T20:26:50.419Z,81.00
2023-01-29T20:31:51.068Z,69.15
2023-01-29T20:34:21.247Z,62.95
2023-01-29T20:36:51.307Z,47.67
2023-01-29T20:39:21.591Z,38.58
2023-01-29T20:41:55.361Z,44.55
2023-01-29T20:46:55.284Z,222.70
2023-01-29T20:49:25.424Z,69.85
2023-01-29T20:51:58.186Z,125.43
2023-01-29T20:54:30.128Z,190.13
2023-01-29T20:57:03.248Z,115.32
2023-01-29T20:59:33.330Z,106.55
2023-01-29T21:02:03.564Z,105.35
2023-01-29T21:04:34.184Z,202.10
2023-01-29T21:07:04.330Z,87.43
2023-01-29T21:09:34.436Z,80.47
2023-01-29T21:12:08.746Z,35.65
2023-01-29T21:14:39.055Z,50.72
2023-01-29T21:17:09.326Z,50.55
2023-01-29T21:19:39.440Z,91.40
2023-01-29T21:22:09.567Z,104.18
2023-01-29T21:24:39.731Z,41.45
2023-01-29T21:27:13.577Z,55.00
2023-01-29T21:32:13.404Z,54.85
2023-01-29T21:34:44.168Z,178.05
2023-01-29T21:37:14.335Z,43.83
2023-01-29T21:39:47.868Z,72.85
2023-01-29T21:42:32.925Z,82.60
2023-01-29T21:45:03.025Z,96.35
2023-01-29T21:47:33.187Z,90.60
2023-01-29T21:50:03.276Z,102.25
2023-01-29T21:52:33.414Z,135.73
2023-01-29T21:55:03.512Z,66.22
2023-01-29T21:57:36.531Z,168.23
2023-01-29T22:00:07.647Z,218.25
2023-01-29T22:02:37.920Z,78.32
2023-01-29T22:05:18.772Z,91.90
2023-01-29T22:07:50.523Z,131.90
2023-01-29T22:10:21.901Z,154.55
2023-01-29T22:12:54.816Z,152.52
2023-01-29T22:15:25.495Z,205.75
2023-01-29T22:17:55.741Z,160.10
2023-01-29T22:20:30.350Z,131.85
2023-01-29T22:23:01.757Z,121.57
2023-01-29T22:25:32.321Z,71.22
2023-01-29T22:28:05.203Z,58.85
2023-01-29T22:30:35.887Z,67.93
2023-01-29T22:33:06.179Z,52.50
2023-01-29T22:35:36.456Z,60.95
2023-01-29T22:38:07.923Z,52.08
2023-01-29T22:40:37.995Z,54.70
2023-01-29T22:43:10.685Z,60.53
2023-01-29T22:45:42.550Z,58.85
2023-01-29T22:48:12.722Z,68.90
2023-01-29T22:50:54.008Z,79.57
2023-01-29T22:53:24.135Z,63.47
2023-01-29T22:55:57.487Z,50.42
2023-01-29T22:58:30.232Z,50.35
2023-01-29T23:01:00.572Z,51.90
2023-01-29T23:03:30.807Z,63.72
2023-01-29T23:06:01.070Z,61.92
2023-01-29T23:08:31.336Z,50.55
2023-01-29T23:11:14.488Z,48.88
2023-01-29T23:13:49.987Z,42.78
2023-01-29T23:16:21.356Z,41.85
2023-01-29T23:18:54.281Z,41.85
2023-01-29T23:21:27.339Z,46.50
2023-01-29T23:23:58.490Z,36.53
2023-01-29T23:26:41.717Z,39.65
2023-01-29T23:29:14.821Z,39.95
2023-01-29T23:31:45.006Z,50.00
2023-01-29T23:34:15.315Z,42.03
2023-01-29T23:36:48.837Z,42.83
2023-01-29T23:39:18.882Z,37.08
2023-01-29T23:41:48.984Z,37.72
2023-01-29T23:44:21.831Z,46.47
2023-01-29T23:46:51.959Z,39.28
2023-01-29T23:49:22.288Z,42.33
2023-01-29T23:51:52.809Z,38.90
2023-01-29T23:54:22.962Z,43.00
2023-01-29T23:56:53.376Z,37.17
2023-01-29T23:59:26.096Z,42.00
